sensor_id;sensor_type;location;lat;lon;timestamp;P1;durP1;ratioP1;P2;durP2;ratioP2
2624;SDS011;1322;53.256;10.386;2023-09-18T00:01:04;7.67;;;6.10;;
2624;SDS011;1322;53.256;10.386;2023-09-18T00:03:31;6.33;;;5.37;;
2624;SDS011;1322;53.256;10.386;2023-09-18T00:05:56;7.30;;;6.60;;
2624;SDS011;1322;53.256;10.386;2023-09-18T00:08:22;6.47;;;5.87;;
2624;SDS011;1322;53.256;10.386;2023-09-18T00:10:49;7.37;;;5.80;;
2624;SDS011;1322;53.256;10.386;2023-09-18T00:13:17;6.67;;;6.07;;
2624;SDS011;1322;53.256;10.386;2023-09-18T00:15:42;6.50;;;5.83;;
2624;SDS011;1322;53.256;10.386;2023-09-18T00:18:11;6.50;;;5.90;;
2624;SDS011;1322;53.256;10.386;2023-09-18T00:20:40;7.53;;;5.80;;
2624;SDS011;1322;53.256;10.386;2023-09-18T00:23:07;6.47;;;5.97;;
2624;SDS011;1322;53.256;10.386;2023-09-18T00:25:34;11.10;;;6.57;;
2624;SDS011;1322;53.256;10.386;2023-09-18T00:28:00;6.57;;;5.83;;
2624;SDS011;1322;53.256;10.386;2023-09-18T00:30:25;6.83;;;6.23;;
2624;SDS011;1322;53.256;10.386;2023-09-18T00:32:51;5.87;;;5.30;;
2624;SDS011;1322;53.256;10.386;2023-09-18T00:35:17;8.80;;;5.93;;
2624;SDS011;1322;53.256;10.386;2023-09-18T00:37:42;6.67;;;5.93;;
2624;SDS011;1322;53.256;10.386;2023-09-18T00:40:09;9.40;;;5.80;;
2624;SDS011;1322;53.256;10.386;2023-09-18T00:42:36;7.60;;;6.40;;
2624;SDS011;1322;53.256;10.386;2023-09-18T00:45:02;7.37;;;6.63;;
2624;SDS011;1322;53.256;10.386;2023-09-18T00:47:27;6.33;;;5.73;;
2624;SDS011;1322;53.256;10.386;2023-09-18T00:49:53;8.23;;;5.70;;
2624;SDS011;1322;53.256;10.386;2023-09-18T00:52:20;6.43;;;5.83;;
2624;SDS011;1322;53.256;10.386;2023-09-18T00:54:48;7.23;;;6.50;;
2624;SDS011;1322;53.256;10.386;2023-09-18T00:57:14;6.67;;;6.03;;
2624;SDS011;1322;53.256;10.386;2023-09-18T00:59:40;5.77;;;5.17;;
2624;SDS011;1322;53.256;10.386;2023-09-18T01:02:06;7.73;;;7.03;;
2624;SDS011;1322;53.256;10.386;2023-09-18T01:04:32;7.50;;;5.93;;
2624;SDS011;1322;53.256;10.386;2023-09-18T01:06:59;6.60;;;5.70;;
2624;SDS011;1322;53.256;10.386;2023-09-18T01:09:28;8.30;;;6.17;;
2624;SDS011;1322;53.256;10.386;2023-09-18T01:17:20;6.23;;;5.63;;
2624;SDS011;1322;53.256;10.386;2023-09-18T01:19:47;6.67;;;6.00;;
2624;SDS011;1322;53.256;10.386;2023-09-18T01:22:13;7.30;;;6.60;;
2624;SDS011;1322;53.256;10.386;2023-09-18T01:24:41;6.60;;;6.00;;
2624;SDS011;1322;53.256;10.386;2023-09-18T01:27:09;7.13;;;6.50;;
2624;SDS011;1322;53.256;10.386;2023-09-18T01:29:36;7.37;;;6.70;;
2624;SDS011;1322;53.256;10.386;2023-09-18T01:32:01;8.70;;;7.10;;
2624;SDS011;1322;53.256;10.386;2023-09-18T01:35:09;6.40;;;5.80;;
2624;SDS011;1322;53.256;10.386;2023-09-18T01:37:20;6.90;;;6.30;;
2624;SDS011;1322;53.256;10.386;2023-09-18T01:39:48;6.80;;;6.20;;
2624;SDS011;1322;53.256;10.386;2023-09-18T01:42:16;6.70;;;6.10;;
2624;SDS011;1322;53.256;10.386;2023-09-18T01:44:42;6.53;;;5.93;;
2624;SDS011;1322;53.256;10.386;2023-09-18T01:47:08;6.80;;;5.80;;
2624;SDS011;1322;53.256;10.386;2023-09-18T01:49:38;7.60;;;6.53;;
2624;SDS011;1322;53.256;10.386;2023-09-18T01:52:05;7.30;;;6.60;;
2624;SDS011;1322;53.256;10.386;2023-09-18T01:54:32;6.83;;;6.13;;
2624;SDS011;1322;53.256;10.386;2023-09-18T01:56:58;7.83;;;6.17;;
2624;SDS011;1322;53.256;10.386;2023-09-18T01:59:25;7.63;;;6.93;;
2624;SDS011;1322;53.256;10.386;2023-09-18T02:01:51;8.23;;;6.97;;
2624;SDS011;1322;53.256;10.386;2023-09-18T02:04:17;7.60;;;6.87;;
2624;SDS011;1322;53.256;10.386;2023-09-18T02:06:43;8.13;;;7.20;;
2624;SDS011;1322;53.256;10.386;2023-09-18T02:09:09;6.83;;;6.23;;
2624;SDS011;1322;53.256;10.386;2023-09-18T02:11:37;8.73;;;6.47;;
2624;SDS011;1322;53.256;10.386;2023-09-18T02:14:03;8.50;;;7.20;;
2624;SDS011;1322;53.256;10.386;2023-09-18T02:16:31;7.73;;;6.17;;
2624;SDS011;1322;53.256;10.386;2023-09-18T02:19:01;6.20;;;5.60;;
2624;SDS011;1322;53.256;10.386;2023-09-18T02:21:28;9.73;;;6.17;;
2624;SDS011;1322;53.256;10.386;2023-09-18T02:23:54;6.97;;;6.30;;
2624;SDS011;1322;53.256;10.386;2023-09-18T02:26:20;6.80;;;6.20;;
2624;SDS011;1322;53.256;10.386;2023-09-18T02:28:46;7.30;;;6.60;;
2624;SDS011;1322;53.256;10.386;2023-09-18T02:31:12;9.57;;;6.37;;
2624;SDS011;1322;53.256;10.386;2023-09-18T02:33:38;9.00;;;6.73;;
2624;SDS011;1322;53.256;10.386;2023-09-18T02:36:06;7.17;;;6.47;;
2624;SDS011;1322;53.256;10.386;2023-09-18T02:38:32;7.17;;;6.53;;
2624;SDS011;1322;53.256;10.386;2023-09-18T02:40:58;8.37;;;6.70;;
2624;SDS011;1322;53.256;10.386;2023-09-18T02:43:25;6.73;;;6.00;;
2624;SDS011;1322;53.256;10.386;2023-09-18T02:45:51;8.07;;;6.97;;
2624;SDS011;1322;53.256;10.386;2023-09-18T02:48:17;6.73;;;6.13;;
2624;SDS011;1322;53.256;10.386;2023-09-18T02:50:43;7.57;;;6.77;;
2624;SDS011;1322;53.256;10.386;2023-09-18T02:53:16;9.97;;;6.47;;
2624;SDS011;1322;53.256;10.386;2023-09-18T02:55:48;7.27;;;6.60;;
2624;SDS011;1322;53.256;10.386;2023-09-18T02:58:19;7.00;;;6.30;;
2624;SDS011;1322;53.256;10.386;2023-09-18T03:00:49;8.20;;;6.00;;
2624;SDS011;1322;53.256;10.386;2023-09-18T03:03:16;7.00;;;6.40;;
2624;SDS011;1322;53.256;10.386;2023-09-18T03:05:42;7.63;;;6.90;;
2624;SDS011;1322;53.256;10.386;2023-09-18T03:08:08;10.67;;;7.60;;
2624;SDS011;1322;53.256;10.386;2023-09-18T03:10:36;8.00;;;7.20;;
2624;SDS011;1322;53.256;10.386;2023-09-18T03:13:04;7.63;;;6.40;;
2624;SDS011;1322;53.256;10.386;2023-09-18T03:15:30;7.97;;;7.10;;
2624;SDS011;1322;53.256;10.386;2023-09-18T03:18:00;9.80;;;6.80;;
2624;SDS011;1322;53.256;10.386;2023-09-18T03:20:27;7.53;;;6.30;;
2624;SDS011;1322;53.256;10.386;2023-09-18T03:22:54;9.43;;;7.80;;
2624;SDS011;1322;53.256;10.386;2023-09-18T03:25:22;8.37;;;7.57;;
2624;SDS011;1322;53.256;10.386;2023-09-18T03:27:49;7.53;;;6.73;;
2624;SDS011;1322;53.256;10.386;2023-09-18T03:30:16;7.57;;;6.87;;
2624;SDS011;1322;53.256;10.386;2023-09-18T03:32:42;7.50;;;6.50;;
2624;SDS011;1322;53.256;10.386;2023-09-18T03:35:08;7.07;;;6.37;;
2624;SDS011;1322;53.256;10.386;2023-09-18T03:37:42;8.50;;;6.50;;
2624;SDS011;1322;53.256;10.386;2023-09-18T03:40:12;7.53;;;6.77;;
2624;SDS011;1322;53.256;10.386;2023-09-18T03:42:37;7.17;;;6.43;;
2624;SDS011;1322;53.256;10.386;2023-09-18T03:45:05;7.33;;;6.63;;
2624;SDS011;1322;53.256;10.386;2023-09-18T03:47:31;7.70;;;7.00;;
2624;SDS011;1322;53.256;10.386;2023-09-18T03:49:58;6.83;;;6.23;;
2624;SDS011;1322;53.256;10.386;2023-09-18T03:52:24;7.60;;;6.80;;
2624;SDS011;1322;53.256;10.386;2023-09-18T03:54:50;10.70;;;7.10;;
2624;SDS011;1322;53.256;10.386;2023-09-18T03:57:16;7.90;;;7.10;;
2624;SDS011;1322;53.256;10.386;2023-09-18T03:59:41;6.90;;;6.30;;
2624;SDS011;1322;53.256;10.386;2023-09-18T04:02:07;7.90;;;7.13;;
2624;SDS011;1322;53.256;10.386;2023-09-18T04:04:33;11.10;;;7.47;;
2624;SDS011;1322;53.256;10.386;2023-09-18T04:06:58;6.50;;;5.90;;
2624;SDS011;1322;53.256;10.386;2023-09-18T04:09:24;9.13;;;8.07;;
2624;SDS011;1322;53.256;10.386;2023-09-18T04:11:49;8.03;;;7.23;;
2624;SDS011;1322;53.256;10.386;2023-09-18T04:14:15;7.80;;;6.53;;
2624;SDS011;1322;53.256;10.386;2023-09-18T04:16:41;7.03;;;6.37;;
2624;SDS011;1322;53.256;10.386;2023-09-18T04:19:08;8.40;;;7.50;;
2624;SDS011;1322;53.256;10.386;2023-09-18T04:21:34;8.10;;;7.30;;
2624;SDS011;1322;53.256;10.386;2023-09-18T04:24:00;7.63;;;6.87;;
2624;SDS011;1322;53.256;10.386;2023-09-18T04:26:26;8.33;;;7.50;;
2624;SDS011;1322;53.256;10.386;2023-09-18T04:28:56;9.10;;;7.20;;
2624;SDS011;1322;53.256;10.386;2023-09-18T04:31:22;8.37;;;7.57;;
2624;SDS011;1322;53.256;10.386;2023-09-18T04:33:48;7.97;;;7.27;;
2624;SDS011;1322;53.256;10.386;2023-09-18T04:36:13;8.80;;;7.97;;
2624;SDS011;1322;53.256;10.386;2023-09-18T04:38:39;7.63;;;6.77;;
2624;SDS011;1322;53.256;10.386;2023-09-18T04:41:05;9.73;;;7.47;;
2624;SDS011;1322;53.256;10.386;2023-09-18T04:43:33;7.47;;;6.70;;
2624;SDS011;1322;53.256;10.386;2023-09-18T04:45:59;8.00;;;7.10;;
2624;SDS011;1322;53.256;10.386;2023-09-18T04:48:27;8.67;;;7.47;;
2624;SDS011;1322;53.256;10.386;2023-09-18T04:50:52;9.83;;;7.67;;
2624;SDS011;1322;53.256;10.386;2023-09-18T04:53:18;7.73;;;6.93;;
2624;SDS011;1322;53.256;10.386;2023-09-18T04:55:43;8.70;;;7.37;;
2624;SDS011;1322;53.256;10.386;2023-09-18T04:58:14;7.73;;;7.07;;
2624;SDS011;1322;53.256;10.386;2023-09-18T05:00:40;9.20;;;8.27;;
2624;SDS011;1322;53.256;10.386;2023-09-18T05:03:06;9.30;;;7.90;;
2624;SDS011;1322;53.256;10.386;2023-09-18T05:05:33;8.50;;;7.70;;
2624;SDS011;1322;53.256;10.386;2023-09-18T05:08:00;9.63;;;8.80;;
2624;SDS011;1322;53.256;10.386;2023-09-18T05:10:28;11.10;;;8.20;;
2624;SDS011;1322;53.256;10.386;2023-09-18T05:12:54;7.93;;;7.13;;
2624;SDS011;1322;53.256;10.386;2023-09-18T05:15:23;8.23;;;7.43;;
2624;SDS011;1322;53.256;10.386;2023-09-18T05:17:51;8.60;;;7.53;;
2624;SDS011;1322;53.256;10.386;2023-09-18T05:20:22;7.80;;;7.07;;
2624;SDS011;1322;53.256;10.386;2023-09-18T05:22:52;10.60;;;8.57;;
2624;SDS011;1322;53.256;10.386;2023-09-18T05:25:24;7.43;;;6.83;;
2624;SDS011;1322;53.256;10.386;2023-09-18T05:27:51;8.93;;;7.27;;
2624;SDS011;1322;53.256;10.386;2023-09-18T05:30:23;8.50;;;7.70;;
2624;SDS011;1322;53.256;10.386;2023-09-18T05:32:53;10.10;;;7.63;;
2624;SDS011;1322;53.256;10.386;2023-09-18T05:35:19;8.10;;;7.30;;
2624;SDS011;1322;53.256;10.386;2023-09-18T05:37:44;8.47;;;7.37;;
2624;SDS011;1322;53.256;10.386;2023-09-18T05:40:11;9.10;;;8.00;;
2624;SDS011;1322;53.256;10.386;2023-09-18T05:42:38;6.93;;;6.30;;
2624;SDS011;1322;53.256;10.386;2023-09-18T05:45:08;8.37;;;7.57;;
2624;SDS011;1322;53.256;10.386;2023-09-18T05:47:34;7.97;;;7.27;;
2624;SDS011;1322;53.256;10.386;2023-09-18T05:50:01;9.27;;;7.27;;
2624;SDS011;1322;53.256;10.386;2023-09-18T05:52:31;7.77;;;6.97;;
2624;SDS011;1322;53.256;10.386;2023-09-18T05:54:58;9.30;;;6.87;;
2624;SDS011;1322;53.256;10.386;2023-09-18T05:57:23;8.53;;;7.63;;
2624;SDS011;1322;53.256;10.386;2023-09-18T05:59:49;7.87;;;7.07;;
2624;SDS011;1322;53.256;10.386;2023-09-18T06:02:14;8.07;;;7.23;;
2624;SDS011;1322;53.256;10.386;2023-09-18T06:04:41;8.83;;;7.93;;
2624;SDS011;1322;53.256;10.386;2023-09-18T06:07:07;8.07;;;7.37;;
2624;SDS011;1322;53.256;10.386;2023-09-18T06:09:33;8.47;;;7.60;;
2624;SDS011;1322;53.256;10.386;2023-09-18T06:11:59;7.70;;;7.00;;
2624;SDS011;1322;53.256;10.386;2023-09-18T06:14:25;9.80;;;6.73;;
2624;SDS011;1322;53.256;10.386;2023-09-18T06:16:51;7.77;;;6.70;;
2624;SDS011;1322;53.256;10.386;2023-09-18T06:19:16;8.10;;;6.50;;
2624;SDS011;1322;53.256;10.386;2023-09-18T06:21:42;7.70;;;6.33;;
2624;SDS011;1322;53.256;10.386;2023-09-18T06:24:09;6.53;;;5.93;;
2624;SDS011;1322;53.256;10.386;2023-09-18T06:26:34;6.97;;;6.30;;
2624;SDS011;1322;53.256;10.386;2023-09-18T06:29:00;7.17;;;6.13;;
2624;SDS011;1322;53.256;10.386;2023-09-18T06:31:27;8.33;;;6.20;;
2624;SDS011;1322;53.256;10.386;2023-09-18T06:33:53;7.23;;;6.53;;
2624;SDS011;1322;53.256;10.386;2023-09-18T06:36:19;9.20;;;6.73;;
2624;SDS011;1322;53.256;10.386;2023-09-18T06:38:44;8.53;;;5.93;;
2624;SDS011;1322;53.256;10.386;2023-09-18T06:41:10;6.80;;;6.00;;
2624;SDS011;1322;53.256;10.386;2023-09-18T06:43:35;8.47;;;5.80;;
2624;SDS011;1322;53.256;10.386;2023-09-18T06:46:01;7.67;;;6.70;;
2624;SDS011;1322;53.256;10.386;2023-09-18T06:48:27;7.10;;;6.40;;
2624;SDS011;1322;53.256;10.386;2023-09-18T06:50:57;7.73;;;6.93;;
2624;SDS011;1322;53.256;10.386;2023-09-18T06:53:28;7.37;;;6.40;;
2624;SDS011;1322;53.256;10.386;2023-09-18T06:55:54;6.37;;;5.77;;
2624;SDS011;1322;53.256;10.386;2023-09-18T06:58:20;7.93;;;6.77;;
2624;SDS011;1322;53.256;10.386;2023-09-18T07:00:46;7.03;;;6.43;;
2624;SDS011;1322;53.256;10.386;2023-09-18T07:03:15;6.83;;;6.23;;
2624;SDS011;1322;53.256;10.386;2023-09-18T07:05:41;6.20;;;5.70;;
2624;SDS011;1322;53.256;10.386;2023-09-18T07:08:08;6.70;;;6.00;;
2624;SDS011;1322;53.256;10.386;2023-09-18T07:10:36;6.53;;;6.00;;
2624;SDS011;1322;53.256;10.386;2023-09-18T07:13:04;8.00;;;6.17;;
2624;SDS011;1322;53.256;10.386;2023-09-18T07:15:29;10.23;;;8.10;;
2624;SDS011;1322;53.256;10.386;2023-09-18T07:17:55;8.50;;;6.80;;
2624;SDS011;1322;53.256;10.386;2023-09-18T07:20:21;7.20;;;6.50;;
2624;SDS011;1322;53.256;10.386;2023-09-18T07:22:48;10.17;;;6.47;;
2624;SDS011;1322;53.256;10.386;2023-09-18T07:25:14;6.80;;;6.10;;
2624;SDS011;1322;53.256;10.386;2023-09-18T07:27:40;6.27;;;5.67;;
2624;SDS011;1322;53.256;10.386;2023-09-18T07:30:09;6.87;;;6.17;;
2624;SDS011;1322;53.256;10.386;2023-09-18T07:32:36;7.30;;;6.53;;
2624;SDS011;1322;53.256;10.386;2023-09-18T07:35:05;7.37;;;5.47;;
2624;SDS011;1322;53.256;10.386;2023-09-18T07:37:32;6.60;;;5.67;;
2624;SDS011;1322;53.256;10.386;2023-09-18T07:39:57;10.27;;;5.77;;
2624;SDS011;1322;53.256;10.386;2023-09-18T07:42:24;6.70;;;6.00;;
2624;SDS011;1322;53.256;10.386;2023-09-18T07:44:50;7.60;;;6.90;;
2624;SDS011;1322;53.256;10.386;2023-09-18T07:47:16;8.27;;;6.00;;
2624;SDS011;1322;53.256;10.386;2023-09-18T07:49:42;6.50;;;5.90;;
2624;SDS011;1322;53.256;10.386;2023-09-18T07:52:07;6.60;;;5.87;;
2624;SDS011;1322;53.256;10.386;2023-09-18T07:54:33;8.37;;;5.63;;
2624;SDS011;1322;53.256;10.386;2023-09-18T07:56:59;5.70;;;5.13;;
2624;SDS011;1322;53.256;10.386;2023-09-18T07:59:26;5.93;;;5.43;;
2624;SDS011;1322;53.256;10.386;2023-09-18T08:01:52;8.97;;;6.43;;
2624;SDS011;1322;53.256;10.386;2023-09-18T08:04:19;5.80;;;5.10;;
2624;SDS011;1322;53.256;10.386;2023-09-18T08:06:45;6.43;;;5.83;;
2624;SDS011;1322;53.256;10.386;2023-09-18T08:09:11;5.57;;;5.07;;
2624;SDS011;1322;53.256;10.386;2023-09-18T08:11:40;6.97;;;6.17;;
2624;SDS011;1322;53.256;10.386;2023-09-18T08:14:08;6.80;;;6.10;;
2624;SDS011;1322;53.256;10.386;2023-09-18T08:16:34;6.10;;;5.50;;
2624;SDS011;1322;53.256;10.386;2023-09-18T08:19:03;10.00;;;7.00;;
2624;SDS011;1322;53.256;10.386;2023-09-18T08:21:29;5.90;;;5.27;;
2624;SDS011;1322;53.256;10.386;2023-09-18T08:23:55;6.50;;;5.90;;
2624;SDS011;1322;53.256;10.386;2023-09-18T08:26:21;6.77;;;6.07;;
2624;SDS011;1322;53.256;10.386;2023-09-18T08:28:47;7.53;;;5.27;;
2624;SDS011;1322;53.256;10.386;2023-09-18T08:31:13;6.63;;;5.80;;
2624;SDS011;1322;53.256;10.386;2023-09-18T08:33:41;6.30;;;5.30;;
2624;SDS011;1322;53.256;10.386;2023-09-18T08:36:07;5.83;;;5.23;;
2624;SDS011;1322;53.256;10.386;2023-09-18T08:38:33;6.03;;;5.43;;
2624;SDS011;1322;53.256;10.386;2023-09-18T08:40:59;6.20;;;5.60;;
2624;SDS011;1322;53.256;10.386;2023-09-18T08:43:25;8.10;;;5.63;;
2624;SDS011;1322;53.256;10.386;2023-09-18T08:48:18;7.80;;;5.57;;
2624;SDS011;1322;53.256;10.386;2023-09-18T08:50:45;6.27;;;5.33;;
2624;SDS011;1322;53.256;10.386;2023-09-18T08:53:12;6.83;;;5.40;;
2624;SDS011;1322;53.256;10.386;2023-09-18T08:55:38;6.90;;;5.83;;
2624;SDS011;1322;53.256;10.386;2023-09-18T08:58:05;6.00;;;5.40;;
2624;SDS011;1322;53.256;10.386;2023-09-18T09:00:32;7.50;;;6.03;;
2624;SDS011;1322;53.256;10.386;2023-09-18T09:02:58;6.23;;;5.63;;
2624;SDS011;1322;53.256;10.386;2023-09-18T09:05:24;6.60;;;5.57;;
2624;SDS011;1322;53.256;10.386;2023-09-18T09:07:50;7.30;;;6.60;;
2624;SDS011;1322;53.256;10.386;2023-09-18T09:10:16;6.30;;;5.67;;
2624;SDS011;1322;53.256;10.386;2023-09-18T09:12:48;6.30;;;5.70;;
2624;SDS011;1322;53.256;10.386;2023-09-18T09:15:14;6.80;;;5.57;;
2624;SDS011;1322;53.256;10.386;2023-09-18T09:17:41;6.87;;;6.17;;
2624;SDS011;1322;53.256;10.386;2023-09-18T09:20:08;6.83;;;5.33;;
2624;SDS011;1322;53.256;10.386;2023-09-18T09:22:38;8.10;;;6.07;;
2624;SDS011;1322;53.256;10.386;2023-09-18T09:25:16;7.03;;;6.43;;
2624;SDS011;1322;53.256;10.386;2023-09-18T09:27:48;6.00;;;5.40;;
2624;SDS011;1322;53.256;10.386;2023-09-18T09:30:20;8.23;;;6.27;;
2624;SDS011;1322;53.256;10.386;2023-09-18T09:32:49;8.17;;;5.83;;
2624;SDS011;1322;53.256;10.386;2023-09-18T09:35:23;6.07;;;5.57;;
2624;SDS011;1322;53.256;10.386;2023-09-18T09:37:53;5.83;;;5.33;;
2624;SDS011;1322;53.256;10.386;2023-09-18T09:40:26;8.33;;;5.27;;
2624;SDS011;1322;53.256;10.386;2023-09-18T09:42:55;6.50;;;5.90;;
2624;SDS011;1322;53.256;10.386;2023-09-18T09:45:30;5.67;;;5.13;;
2624;SDS011;1322;53.256;10.386;2023-09-18T09:48:01;8.33;;;6.57;;
2624;SDS011;1322;53.256;10.386;2023-09-18T09:50:31;6.07;;;5.47;;
2624;SDS011;1322;53.256;10.386;2023-09-18T09:52:57;6.73;;;6.00;;
2624;SDS011;1322;53.256;10.386;2023-09-18T09:55:27;7.43;;;6.23;;
2624;SDS011;1322;53.256;10.386;2023-09-18T09:58:00;6.93;;;6.23;;
2624;SDS011;1322;53.256;10.386;2023-09-18T10:00:31;8.87;;;5.80;;
2624;SDS011;1322;53.256;10.386;2023-09-18T10:03:08;7.27;;;6.40;;
2624;SDS011;1322;53.256;10.386;2023-09-18T10:05:36;5.67;;;5.17;;
2624;SDS011;1322;53.256;10.386;2023-09-18T10:08:06;6.57;;;5.97;;
2624;SDS011;1322;53.256;10.386;2023-09-18T10:10:40;7.50;;;6.33;;
2624;SDS011;1322;53.256;10.386;2023-09-18T10:13:17;6.67;;;5.53;;
2624;SDS011;1322;53.256;10.386;2023-09-18T10:15:44;5.90;;;5.30;;
2624;SDS011;1322;53.256;10.386;2023-09-18T10:18:18;13.40;;;8.70;;
2624;SDS011;1322;53.256;10.386;2023-09-18T10:20:51;9.27;;;6.37;;
2624;SDS011;1322;53.256;10.386;2023-09-18T10:23:41;7.03;;;6.40;;
2624;SDS011;1322;53.256;10.386;2023-09-18T10:26:18;10.70;;;5.47;;
2624;SDS011;1322;53.256;10.386;2023-09-18T10:28:54;8.57;;;6.30;;
2624;SDS011;1322;53.256;10.386;2023-09-18T10:31:26;6.60;;;5.80;;
2624;SDS011;1322;53.256;10.386;2023-09-18T10:33:52;9.20;;;5.70;;
2624;SDS011;1322;53.256;10.386;2023-09-18T10:36:18;7.00;;;5.20;;
2624;SDS011;1322;53.256;10.386;2023-09-18T10:38:46;9.50;;;5.40;;
2624;SDS011;1322;53.256;10.386;2023-09-18T10:41:15;7.10;;;5.50;;
2624;SDS011;1322;53.256;10.386;2023-09-18T10:43:45;9.53;;;5.50;;
2624;SDS011;1322;53.256;10.386;2023-09-18T10:46:12;7.70;;;6.10;;
2624;SDS011;1322;53.256;10.386;2023-09-18T10:48:40;7.80;;;5.00;;
2624;SDS011;1322;53.256;10.386;2023-09-18T10:51:08;9.37;;;6.77;;
2624;SDS011;1322;53.256;10.386;2023-09-18T10:53:35;6.87;;;5.33;;
2624;SDS011;1322;53.256;10.386;2023-09-18T10:56:01;7.47;;;5.40;;
2624;SDS011;1322;53.256;10.386;2023-09-18T10:58:29;6.67;;;4.53;;
2624;SDS011;1322;53.256;10.386;2023-09-18T11:00:56;10.17;;;5.10;;
2624;SDS011;1322;53.256;10.386;2023-09-18T11:03:24;9.33;;;4.63;;
2624;SDS011;1322;53.256;10.386;2023-09-18T11:06:01;9.57;;;5.90;;
2624;SDS011;1322;53.256;10.386;2023-09-18T11:13:34;8.40;;;4.77;;
2624;SDS011;1322;53.256;10.386;2023-09-18T11:18:40;10.73;;;4.83;;
2624;SDS011;1322;53.256;10.386;2023-09-18T11:21:09;7.83;;;5.17;;
2624;SDS011;1322;53.256;10.386;2023-09-18T11:23:37;5.23;;;4.67;;
2624;SDS011;1322;53.256;10.386;2023-09-18T11:26:08;8.43;;;5.37;;
2624;SDS011;1322;53.256;10.386;2023-09-18T11:28:40;5.70;;;4.97;;
2624;SDS011;1322;53.256;10.386;2023-09-18T11:31:07;16.77;;;12.13;;
2624;SDS011;1322;53.256;10.386;2023-09-18T11:33:38;7.50;;;6.07;;
2624;SDS011;1322;53.256;10.386;2023-09-18T11:36:08;8.83;;;4.80;;
2624;SDS011;1322;53.256;10.386;2023-09-18T11:38:55;8.80;;;5.40;;
2624;SDS011;1322;53.256;10.386;2023-09-18T11:43:52;10.07;;;4.87;;
2624;SDS011;1322;53.256;10.386;2023-09-18T11:46:47;10.30;;;4.93;;
2624;SDS011;1322;53.256;10.386;2023-09-18T11:49:19;6.20;;;4.77;;
2624;SDS011;1322;53.256;10.386;2023-09-18T11:51:53;8.63;;;5.27;;
2624;SDS011;1322;53.256;10.386;2023-09-18T11:54:23;10.03;;;4.93;;
2624;SDS011;1322;53.256;10.386;2023-09-18T11:56:49;7.77;;;4.70;;
2624;SDS011;1322;53.256;10.386;2023-09-18T11:59:15;5.80;;;4.07;;
2624;SDS011;1322;53.256;10.386;2023-09-18T12:01:42;9.43;;;4.83;;
2624;SDS011;1322;53.256;10.386;2023-09-18T12:04:11;8.00;;;5.07;;
2624;SDS011;1322;53.256;10.386;2023-09-18T12:06:40;12.53;;;4.73;;
2624;SDS011;1322;53.256;10.386;2023-09-18T12:09:07;6.50;;;4.33;;
2624;SDS011;1322;53.256;10.386;2023-09-18T12:11:34;6.50;;;4.47;;
2624;SDS011;1322;53.256;10.386;2023-09-18T12:14:00;4.77;;;3.93;;
2624;SDS011;1322;53.256;10.386;2023-09-18T12:16:30;5.33;;;3.77;;
2624;SDS011;1322;53.256;10.386;2023-09-18T12:18:56;8.60;;;4.37;;
2624;SDS011;1322;53.256;10.386;2023-09-18T12:21:22;9.40;;;4.43;;
2624;SDS011;1322;53.256;10.386;2023-09-18T12:23:48;5.93;;;3.90;;
2624;SDS011;1322;53.256;10.386;2023-09-18T12:26:15;8.30;;;4.13;;
2624;SDS011;1322;53.256;10.386;2023-09-18T12:28:43;6.67;;;4.00;;
2624;SDS011;1322;53.256;10.386;2023-09-18T12:31:11;7.10;;;3.93;;
2624;SDS011;1322;53.256;10.386;2023-09-18T12:33:39;4.43;;;3.70;;
2624;SDS011;1322;53.256;10.386;2023-09-18T12:36:06;4.50;;;3.23;;
2624;SDS011;1322;53.256;10.386;2023-09-18T12:38:33;7.83;;;3.53;;
2624;SDS011;1322;53.256;10.386;2023-09-18T12:40:59;6.60;;;3.30;;
2624;SDS011;1322;53.256;10.386;2023-09-18T12:43:38;7.77;;;4.70;;
2624;SDS011;1322;53.256;10.386;2023-09-18T12:46:06;5.77;;;2.60;;
2624;SDS011;1322;53.256;10.386;2023-09-18T12:48:36;6.30;;;3.30;;
2624;SDS011;1322;53.256;10.386;2023-09-18T12:51:04;7.40;;;4.03;;
2624;SDS011;1322;53.256;10.386;2023-09-18T12:53:30;6.77;;;3.80;;
2624;SDS011;1322;53.256;10.386;2023-09-18T12:56:06;20.30;;;15.90;;
2624;SDS011;1322;53.256;10.386;2023-09-18T12:58:37;7.87;;;5.00;;
2624;SDS011;1322;53.256;10.386;2023-09-18T13:01:05;5.43;;;4.20;;
2624;SDS011;1322;53.256;10.386;2023-09-18T13:03:44;3.93;;;3.07;;
2624;SDS011;1322;53.256;10.386;2023-09-18T13:06:17;5.00;;;3.20;;
2624;SDS011;1322;53.256;10.386;2023-09-18T13:08:44;10.50;;;2.83;;
2624;SDS011;1322;53.256;10.386;2023-09-18T13:11:10;5.40;;;2.10;;
2624;SDS011;1322;53.256;10.386;2023-09-18T13:13:37;6.97;;;3.37;;
2624;SDS011;1322;53.256;10.386;2023-09-18T13:16:06;4.60;;;3.20;;
2624;SDS011;1322;53.256;10.386;2023-09-18T13:18:36;5.77;;;3.67;;
2624;SDS011;1322;53.256;10.386;2023-09-18T13:21:11;4.97;;;3.43;;
2624;SDS011;1322;53.256;10.386;2023-09-18T13:23:37;4.93;;;2.50;;
2624;SDS011;1322;53.256;10.386;2023-09-18T13:26:04;5.30;;;2.60;;
2624;SDS011;1322;53.256;10.386;2023-09-18T13:28:30;6.73;;;3.20;;
2624;SDS011;1322;53.256;10.386;2023-09-18T13:30:58;9.30;;;3.00;;
2624;SDS011;1322;53.256;10.386;2023-09-18T13:33:24;7.90;;;2.70;;
2624;SDS011;1322;53.256;10.386;2023-09-18T13:35:51;6.77;;;2.53;;
2624;SDS011;1322;53.256;10.386;2023-09-18T13:38:18;5.70;;;2.97;;
2624;SDS011;1322;53.256;10.386;2023-09-18T13:40:45;4.13;;;2.30;;
2624;SDS011;1322;53.256;10.386;2023-09-18T13:43:12;8.60;;;3.10;;
2624;SDS011;1322;53.256;10.386;2023-09-18T13:45:40;5.93;;;2.30;;
2624;SDS011;1322;53.256;10.386;2023-09-18T13:48:07;5.70;;;2.80;;
2624;SDS011;1322;53.256;10.386;2023-09-18T13:50:33;6.00;;;2.73;;
2624;SDS011;1322;53.256;10.386;2023-09-18T13:52:59;3.37;;;2.30;;
2624;SDS011;1322;53.256;10.386;2023-09-18T13:55:26;2.70;;;2.43;;
2624;SDS011;1322;53.256;10.386;2023-09-18T13:57:51;5.60;;;2.50;;
2624;SDS011;1322;53.256;10.386;2023-09-18T14:00:17;2.63;;;2.20;;
2624;SDS011;1322;53.256;10.386;2023-09-18T14:02:43;5.07;;;2.73;;
2624;SDS011;1322;53.256;10.386;2023-09-18T14:05:09;4.30;;;2.40;;
2624;SDS011;1322;53.256;10.386;2023-09-18T14:07:35;7.40;;;2.60;;
2624;SDS011;1322;53.256;10.386;2023-09-18T14:10:03;3.60;;;2.50;;
2624;SDS011;1322;53.256;10.386;2023-09-18T14:12:32;5.13;;;2.40;;
2624;SDS011;1322;53.256;10.386;2023-09-18T14:14:57;4.40;;;2.60;;
2624;SDS011;1322;53.256;10.386;2023-09-18T14:17:24;6.40;;;2.97;;
2624;SDS011;1322;53.256;10.386;2023-09-18T14:19:50;3.03;;;2.43;;
2624;SDS011;1322;53.256;10.386;2023-09-18T14:22:18;4.10;;;2.13;;
2624;SDS011;1322;53.256;10.386;2023-09-18T14:24:44;6.13;;;2.90;;
2624;SDS011;1322;53.256;10.386;2023-09-18T14:27:10;3.63;;;2.43;;
2624;SDS011;1322;53.256;10.386;2023-09-18T14:29:37;3.23;;;2.67;;
2624;SDS011;1322;53.256;10.386;2023-09-18T14:32:03;9.57;;;5.40;;
2624;SDS011;1322;53.256;10.386;2023-09-18T14:34:29;5.90;;;4.27;;
2624;SDS011;1322;53.256;10.386;2023-09-18T14:36:55;4.73;;;3.27;;
2624;SDS011;1322;53.256;10.386;2023-09-18T14:39:22;8.57;;;3.20;;
2624;SDS011;1322;53.256;10.386;2023-09-18T14:41:47;4.90;;;2.73;;
2624;SDS011;1322;53.256;10.386;2023-09-18T14:44:14;7.37;;;5.73;;
2624;SDS011;1322;53.256;10.386;2023-09-18T14:46:40;5.90;;;3.07;;
2624;SDS011;1322;53.256;10.386;2023-09-18T14:49:06;6.00;;;2.43;;
2624;SDS011;1322;53.256;10.386;2023-09-18T14:51:35;5.87;;;2.73;;
2624;SDS011;1322;53.256;10.386;2023-09-18T14:54:01;9.20;;;2.60;;
2624;SDS011;1322;53.256;10.386;2023-09-18T14:56:29;4.47;;;2.50;;
2624;SDS011;1322;53.256;10.386;2023-09-18T14:58:54;6.03;;;2.67;;
2624;SDS011;1322;53.256;10.386;2023-09-18T15:01:21;5.10;;;2.73;;
2624;SDS011;1322;53.256;10.386;2023-09-18T15:03:47;3.40;;;2.20;;
2624;SDS011;1322;53.256;10.386;2023-09-18T15:06:16;16.13;;;3.60;;
2624;SDS011;1322;53.256;10.386;2023-09-18T15:08:42;5.83;;;2.50;;
2624;SDS011;1322;53.256;10.386;2023-09-18T15:11:08;6.90;;;2.80;;
2624;SDS011;1322;53.256;10.386;2023-09-18T15:13:34;5.97;;;2.30;;
2624;SDS011;1322;53.256;10.386;2023-09-18T15:16:03;3.37;;;2.00;;
2624;SDS011;1322;53.256;10.386;2023-09-18T15:18:29;5.13;;;2.60;;
2624;SDS011;1322;53.256;10.386;2023-09-18T15:20:54;7.93;;;2.77;;